Time;durP1;ratioP1;P1;durP2;ratioP2;P2;SDS_P1;SDS_P2;PMS_P1;PMS_P2;Temp;Humidity;BMP_temperature;BMP_pressure;BME280_temperature;BME280_humidity;BME280_pressure;Samples;Min_cycle;Max_cycle;Signal;HPM_P1;HPM_P2
2022/01/23 00:01:25;;;;;;;;;;;;;;;8.06;100.00;100922.28;5076746;28;20034;-84
2022/01/23 00:03:53;;;;;;;;;;;;;;;7.88;100.00;100917.47;5092832;28;19928;-84
2022/01/23 00:06:22;;;;;;;;;;;;;;;7.67;100.00;100914.16;5076579;28;19928;-85
2022/01/23 00:08:50;;;;;;;;;;;;;;;7.56;100.00;100905.53;5093067;28;19924;-84
2022/01/23 00:11:21;;;;;;;;;;;;;;;7.61;100.00;100901.69;5076331;28;20329;-84
2022/01/23 00:19:13;;;;;;;;;;;;;;;7.61;100.00;100918.38;5092935;28;19947;-85
2022/01/23 00:21:41;;;;;;;;;;;;;;;7.69;100.00;100918.22;5092795;28;19969;-84
2022/01/23 00:32:10;;;;;;;;;;;;;;;7.73;100.00;100921.88;5073983;28;19960;-84
2022/01/23 00:34:37;;;;;;;;;;;;;;;7.74;100.00;100925.47;5072718;28;20330;-84
2022/01/23 00:37:06;;;;;;;;;;;;;;;7.81;100.00;100917.28;5072446;28;20277;-84
2022/01/23 00:39:34;;;;;;;;;;;;;;;7.95;100.00;100929.56;5072772;28;19995;-84
2022/01/23 00:42:01;;;;;;;;;;;;;;;7.60;100.00;100916.78;5038981;28;20007;-85
2022/01/23 00:44:29;;;;;;;;;;;;;;;7.44;100.00;100921.53;5057828;28;20034;-85
2022/01/23 00:46:56;;;;;;;;;;;;;;;7.72;100.00;100909.16;5076372;28;19970;-84
2022/01/23 00:49:26;;;;;;;;;;;;;;;7.68;100.00;100901.88;5043241;28;20303;-84
2022/01/23 00:51:56;;;;;;;;;;;;;;;7.65;100.00;100897.03;5076808;28;20342;-84
2022/01/23 00:54:25;;;;;;;;;;;;;;;7.75;100.00;100902.03;5076273;28;20023;-84
2022/01/23 00:56:52;;;;;;;;;;;;;;;7.77;100.00;100905.28;5059580;28;20299;-84
2022/01/23 00:59:19;;;;;;;;;;;;;;;7.58;100.00;100903.22;5059711;28;19928;-84
2022/01/23 01:01:46;;;;;;;;;;;;;;;7.49;100.00;100910.13;5075803;28;19924;-84
2022/01/23 01:04:13;;;;;;;;;;;;;;;7.45;100.00;100898.13;5076177;28;20435;-85
2022/01/23 01:06:41;;;;;;;;;;;;;;;7.48;100.00;100906.56;5042836;28;19924;-85
2022/01/23 01:09:09;;;;;;;;;;;;;;;7.46;100.00;100894.97;5075986;28;20406;-85
2022/01/23 01:11:56;;;;;;;;;;;;;;;6.92;100.00;100896.72;5043240;28;19925;-85
2022/01/23 01:17:24;;;;;;;;;;;;;;;6.93;100.00;100899.13;5075798;28;19924;-84
2022/01/23 01:31:21;;;;;;;;;;;;;;;7.34;100.00;100873.63;5095786;28;20387;-84
2022/01/23 01:34:01;;;;;;;;;;;;;;;6.67;100.00;100873.78;5079570;28;19931;-84
2022/01/23 01:39:02;;;;;;;;;;;;;;;7.04;100.00;100874.41;5096308;28;20324;-83
2022/01/23 01:41:30;;;;;;;;;;;;;;;7.47;100.00;100873.53;5096165;28;19924;-83
2022/01/23 01:43:57;;;;;;;;;;;;;;;7.55;100.00;100870.56;5078991;28;20001;-83
2022/01/23 01:46:57;;;;;;;;;;;;;;;7.53;100.00;100872.09;5091865;28;19959;-83
2022/01/23 01:49:31;;;;;;;;;;;;;;;7.52;100.00;100876.84;5062968;28;19953;-83
2022/01/23 01:52:01;;;;;;;;;;;;;;;7.54;100.00;100880.09;5095547;28;19932;-83
2022/01/23 01:54:32;;;;;;;;;;;;;;;7.70;100.00;100888.41;5062183;28;19924;-83
2022/01/23 01:57:09;;;;;;;;;;;;;;;7.74;100.00;100878.19;5095568;28;19924;-83
2022/01/23 02:00:24;;;;;;;;;;;;;;;7.33;100.00;100883.13;5094893;28;20272;-83
2022/01/23 02:08:40;;;;;;;;;;;;;;;7.14;100.00;100882.22;5078432;28;19930;-82
2022/01/23 02:11:19;;;;;;;;;;;;;;;7.43;100.00;100884.56;5078544;28;19924;-83
2022/01/23 02:14:12;;;;;;;;;;;;;;;7.36;100.00;100879.63;5078359;28;19932;-83
2022/01/23 02:17:11;;;;;;;;;;;;;;;7.27;100.00;100880.94;5095458;27;20337;-83
2022/01/23 02:25:39;;;;;;;;;;;;;;;7.03;100.00;100870.00;5092210;28;20402;-82
2022/01/23 02:55:45;;;;;;;;;;;;;;;7.26;100.00;100849.56;5058067;28;19930;-82
2022/01/23 02:58:16;;;;;;;;;;;;;;;7.07;100.00;100848.69;5057826;28;19931;-82
2022/01/23 03:01:05;;;;;;;;;;;;;;;7.03;100.00;100842.19;5075762;28;20043;-82
2022/01/23 03:04:03;;;;;;;;;;;;;;;7.26;100.00;100841.25;5056638;28;19924;-82
2022/01/23 03:07:12;;;;;;;;;;;;;;;7.06;100.00;100836.75;5060629;28;19924;-82
2022/01/23 03:15:16;;;;;;;;;;;;;;;7.28;100.00;100838.09;5073967;28;19931;-82
2022/01/23 03:31:24;;;;;;;;;;;;;;;6.56;100.00;100836.56;5077020;28;20279;-83
2022/01/23 03:33:53;;;;;;;;;;;;;;;6.66;100.00;100829.69;5077021;28;20523;-82
2022/01/23 03:36:20;;;;;;;;;;;;;;;6.65;100.00;100836.41;5076805;28;19924;-82
2022/01/23 03:38:47;;;;;;;;;;;;;;;6.86;100.00;100832.22;5094130;28;19931;-82
2022/01/23 03:41:14;;;;;;;;;;;;;;;6.91;100.00;100822.81;5095036;28;19971;-82
2022/01/23 03:43:41;;;;;;;;;;;;;;;6.92;100.00;100825.25;5093749;28;20007;-82
2022/01/23 03:51:15;;;;;;;;;;;;;;;7.19;100.00;100820.78;5093601;28;20116;-82
2022/01/23 03:53:45;;;;;;;;;;;;;;;7.05;100.00;100817.63;5093504;28;20076;-82
2022/01/23 03:56:14;;;;;;;;;;;;;;;7.14;100.00;100809.94;5094838;28;19986;-82
2022/01/23 03:58:43;;;;;;;;;;;;;;;7.20;100.00;100805.72;5060407;28;20390;-82
2022/01/23 04:01:17;;;;;;;;;;;;;;;7.38;100.00;100806.94;5076921;28;19924;-82
2022/01/23 04:03:46;;;;;;;;;;;;;;;7.41;100.00;100809.00;5076850;28;19924;-82
2022/01/23 04:06:14;;;;;;;;;;;;;;;7.26;100.00;100798.72;5076800;28;20350;-82
2022/01/23 04:08:43;;;;;;;;;;;;;;;7.43;100.00;100803.91;5093159;28;19931;-82
2022/01/23 04:11:10;;;;;;;;;;;;;;;7.05;100.00;100806.53;5076540;28;20373;-83
2022/01/23 04:13:58;;;;;;;;;;;;;;;6.75;100.00;100805.34;5077543;28;19931;-82
2022/01/23 04:59:48;;;;;;;;;;;;;;;7.01;100.00;100811.19;5072881;28;19924;-83
2022/01/23 05:05:01;;;;;;;;;;;;;;;6.88;100.00;100813.22;5073920;28;19971;-82
2022/01/23 05:07:40;;;;;;;;;;;;;;;7.10;100.00;100812.59;5073145;28;19924;-82
2022/01/23 05:10:17;;;;;;;;;;;;;;;7.28;100.00;100808.28;5073697;28;20295;-81
2022/01/23 05:13:14;;;;;;;;;;;;;;;7.54;100.00;100801.38;5042225;28;19929;-82
2022/01/23 05:15:42;;;;;;;;;;;;;;;7.51;100.00;100800.13;5039161;28;19928;-82
2022/01/23 05:18:11;;;;;;;;;;;;;;;7.36;100.00;100796.19;5071555;28;19932;-82
2022/01/23 05:20:39;;;;;;;;;;;;;;;7.51;100.00;100802.91;5054680;28;20264;-82
2022/01/23 05:23:08;;;;;;;;;;;;;;;7.45;100.00;100797.97;5054209;28;20339;-82
2022/01/23 05:25:37;;;;;;;;;;;;;;;7.16;100.00;100790.94;5054699;28;19925;-82
2022/01/23 05:28:07;;;;;;;;;;;;;;;7.29;100.00;100798.81;5038468;28;20367;-82
2022/01/23 05:30:36;;;;;;;;;;;;;;;6.98;100.00;100789.66;5039723;28;20088;-82
2022/01/23 05:33:04;;;;;;;;;;;;;;;6.73;100.00;100802.91;5074830;28;20356;-82
2022/01/23 05:35:31;;;;;;;;;;;;;;;6.90;100.00;100801.75;5049945;28;20381;-83
2022/01/23 05:37:59;;;;;;;;;;;;;;;6.86;100.00;100798.09;5009461;28;19925;-82
2022/01/23 05:40:29;;;;;;;;;;;;;;;6.92;100.00;100796.66;5022044;28;19924;-82
2022/01/23 05:42:57;;;;;;;;;;;;;;;6.85;100.00;100802.00;5037048;28;20318;-83
2022/01/23 05:45:25;;;;;;;;;;;;;;;7.09;100.00;100799.06;5058411;28;19929;-82
2022/01/23 05:48:16;;;;;;;;;;;;;;;7.34;100.00;100798.53;4998775;28;19933;-82
2022/01/23 05:50:49;;;;;;;;;;;;;;;7.11;100.00;100792.00;5037359;28;20556;-82
2022/01/23 05:53:28;;;;;;;;;;;;;;;6.86;100.00;100796.09;5019702;28;19925;-82
2022/01/23 05:56:21;;;;;;;;;;;;;;;6.55;100.00;100792.47;5018366;28;19932;-83
2022/01/23 05:58:48;;;;;;;;;;;;;;;6.50;100.00;100792.72;5018094;28;20332;-82
2022/01/23 06:01:16;;;;;;;;;;;;;;;6.83;100.00;100801.59;5018116;28;20351;-83
2022/01/23 06:03:45;;;;;;;;;;;;;;;6.86;100.00;100803.66;5017685;28;19929;-82
2022/01/23 06:06:15;;;;;;;;;;;;;;;6.98;100.00;100803.56;5017319;28;19933;-82
2022/01/23 06:08:43;;;;;;;;;;;;;;;7.23;100.00;100800.25;5003395;28;20398;-82
2022/01/23 06:11:12;;;;;;;;;;;;;;;7.15;100.00;100801.22;5017768;28;19925;-82
2022/01/23 06:13:40;;;;;;;;;;;;;;;6.81;100.00;100795.56;5027400;28;19925;-82
2022/01/23 06:16:09;;;;;;;;;;;;;;;6.97;100.00;100813.88;5037998;28;19924;-82
2022/01/23 06:18:40;;;;;;;;;;;;;;;7.36;100.00;100806.53;5037619;28;19928;-82
2022/01/23 06:21:21;;;;;;;;;;;;;;;7.56;100.00;100810.97;5039221;28;19924;-82
2022/01/23 06:24:11;;;;;;;;;;;;;;;7.55;100.00;100801.00;5054243;28;19931;-82
2022/01/23 06:27:00;;;;;;;;;;;;;;;6.98;100.00;100795.22;5064606;28;19986;-82
2022/01/23 06:29:30;;;;;;;;;;;;;;;7.02;100.00;100810.00;5112845;27;19931;-82
2022/01/23 06:31:58;;;;;;;;;;;;;;;7.10;100.00;100801.50;5082316;28;19931;-82
2022/01/23 06:34:26;;;;;;;;;;;;;;;6.98;100.00;100800.78;5074855;28;20019;-82
2022/01/23 06:36:54;;;;;;;;;;;;;;;7.09;100.00;100807.41;5074717;28;19924;-83
2022/01/23 06:39:23;;;;;;;;;;;;;;;6.96;100.00;100808.66;5058230;28;19924;-82
2022/01/23 06:41:55;;;;;;;;;;;;;;;7.32;100.00;100809.22;5073538;28;20340;-82
2022/01/23 06:44:34;;;;;;;;;;;;;;;7.06;100.00;100805.34;5074769;28;19924;-82
2022/01/23 06:47:04;;;;;;;;;;;;;;;7.35;100.00;100805.72;5057982;28;19932;-82
2022/01/23 06:49:31;;;;;;;;;;;;;;;7.03;100.00;100798.53;5057541;28;19933;-82
2022/01/23 06:51:58;;;;;;;;;;;;;;;7.24;100.00;100810.19;5074471;28;19985;-82
2022/01/23 06:54:27;;;;;;;;;;;;;;;6.75;100.00;100808.94;5057871;28;19928;-82
2022/01/23 06:56:55;;;;;;;;;;;;;;;7.18;100.00;100817.19;5057930;28;19932;-82
2022/01/23 06:59:24;;;;;;;;;;;;;;;7.45;100.00;100817.44;5057992;28;19924;-82
2022/01/23 07:02:08;;;;;;;;;;;;;;;7.49;100.00;100816.38;5042569;28;19932;-82
2022/01/23 07:04:45;;;;;;;;;;;;;;;7.58;100.00;100808.63;5074213;28;19931;-82
2022/01/23 07:07:31;;;;;;;;;;;;;;;7.75;100.00;100819.38;5071522;28;19969;-82
2022/01/23 07:10:22;;;;;;;;;;;;;;;7.69;100.00;100809.69;5063295;28;19931;-82
2022/01/23 07:13:05;;;;;;;;;;;;;;;7.52;100.00;100818.44;5054318;28;19939;-82
2022/01/23 07:15:51;;;;;;;;;;;;;;;7.63;100.00;100813.94;5055353;28;19924;-82
2022/01/23 07:18:39;;;;;;;;;;;;;;;7.73;100.00;100816.13;5074176;28;20311;-82
2022/01/23 07:21:10;;;;;;;;;;;;;;;7.85;100.00;100804.06;5058009;28;19928;-83
2022/01/23 07:23:50;;;;;;;;;;;;;;;7.91;100.00;100806.22;5057474;28;19925;-82
2022/01/23 07:26:23;;;;;;;;;;;;;;;7.83;100.00;100807.22;5074007;28;19924;-82
2022/01/23 07:28:56;;;;;;;;;;;;;;;7.84;100.00;100808.84;5057622;28;20295;-82
2022/01/23 07:34:04;;;;;;;;;;;;;;;7.55;100.00;100802.97;5040095;28;19993;-83
2022/01/23 07:36:32;;;;;;;;;;;;;;;7.67;100.00;100814.00;5073005;28;19932;-86
2022/01/23 07:39:00;;;;;;;;;;;;;;;7.72;100.00;100816.50;5092209;28;19931;-80
2022/01/23 07:41:38;;;;;;;;;;;;;;;7.59;100.00;100815.81;5074691;28;19973;-83
2022/01/23 07:44:29;;;;;;;;;;;;;;;7.69;100.00;100798.56;5073837;28;20534;-86
2022/01/23 07:47:22;;;;;;;;;;;;;;;7.37;100.00;100805.34;5045518;28;19925;-83
2022/01/23 07:50:12;;;;;;;;;;;;;;;7.46;100.00;100800.41;5015802;28;19994;-80
2022/01/23 07:53:06;;;;;;;;;;;;;;;7.61;100.00;100798.75;5000061;28;19964;-80
2022/01/23 07:55:52;;;;;;;;;;;;;;;7.64;100.00;100807.19;5017087;28;19926;-80
2022/01/23 07:58:37;;;;;;;;;;;;;;;7.67;100.00;100806.47;5014718;28;19925;-80
2022/01/23 08:01:04;;;;;;;;;;;;;;;7.68;100.00;100810.84;5014841;28;19925;-79
2022/01/23 08:03:37;;;;;;;;;;;;;;;7.85;100.00;100812.41;4999549;28;19932;-81
2022/01/23 08:06:16;;;;;;;;;;;;;;;7.78;100.00;100807.53;5000846;28;19983;-82
2022/01/23 08:09:08;;;;;;;;;;;;;;;7.82;100.00;100808.41;4954371;28;19949;-83
2022/01/23 08:11:39;;;;;;;;;;;;;;;7.89;100.00;100804.97;4937822;29;19926;-83
2022/01/23 08:14:06;;;;;;;;;;;;;;;7.91;100.00;100811.78;4922472;29;20028;-83
2022/01/23 08:16:35;;;;;;;;;;;;;;;7.96;100.00;100808.72;4937854;29;20302;-83
2022/01/23 08:19:02;;;;;;;;;;;;;;;7.75;100.00;100801.88;4970155;28;19974;-83
2022/01/23 08:21:29;;;;;;;;;;;;;;;7.70;100.00;100805.72;4953727;29;19958;-83
2022/01/23 08:23:56;;;;;;;;;;;;;;;7.83;100.00;100803.66;4979294;28;19936;-82
2022/01/23 08:26:24;;;;;;;;;;;;;;;7.62;100.00;100803.94;4992551;28;19925;-83
2022/01/23 08:28:51;;;;;;;;;;;;;;;7.74;100.00;100805.81;4982177;28;19965;-84
2022/01/23 08:31:18;;;;;;;;;;;;;;;7.76;100.00;100812.63;4998281;28;20061;-83
2022/01/23 08:33:46;;;;;;;;;;;;;;;7.73;100.00;100804.19;4989039;28;20048;-83
2022/01/23 08:36:14;;;;;;;;;;;;;;;7.60;100.00;100797.97;5008748;28;20076;-84
2022/01/23 08:38:43;;;;;;;;;;;;;;;7.62;100.00;100803.94;4984867;28;19926;-84
2022/01/23 08:43:47;;;;;;;;;;;;;;;7.62;100.00;100797.59;5005196;28;20008;-81
2022/01/23 08:46:16;;;;;;;;;;;;;;;7.73;100.00;100805.00;5027531;28;20402;-81
2022/01/23 08:48:44;;;;;;;;;;;;;;;7.56;100.00;100799.84;5083056;28;19925;-81
2022/01/23 08:51:11;;;;;;;;;;;;;;;7.45;100.00;100806.31;5049430;28;20288;-82
2022/01/23 08:53:39;;;;;;;;;;;;;;;7.55;100.00;100809.34;5050998;28;19940;-85
2022/01/23 08:56:06;;;;;;;;;;;;;;;7.45;100.00;100809.91;5049877;28;19924;-82
2022/01/23 08:58:33;;;;;;;;;;;;;;;7.62;100.00;100812.28;5068425;28;19977;-81
2022/01/23 09:01:00;;;;;;;;;;;;;;;7.51;100.00;100816.81;5068001;28;20273;-83
2022/01/23 09:03:28;;;;;;;;;;;;;;;7.49;100.00;100816.38;5073090;28;19934;-81
2022/01/23 09:05:55;;;;;;;;;;;;;;;7.64;100.00;100818.31;5082527;28;19947;-81
2022/01/23 09:08:22;;;;;;;;;;;;;;;7.61;100.00;100807.91;5074557;28;20015;-83
2022/01/23 09:10:55;;;;;;;;;;;;;;;7.44;100.00;100807.50;5072818;28;19930;-80
2022/01/23 09:13:33;;;;;;;;;;;;;;;7.41;100.00;100811.00;5073031;28;19924;-80
2022/01/23 09:16:01;;;;;;;;;;;;;;;7.34;100.00;100812.44;5069149;28;20249;-80
2022/01/23 09:18:29;;;;;;;;;;;;;;;7.20;100.00;100812.09;5072549;28;20388;-80
2022/01/23 09:20:56;;;;;;;;;;;;;;;7.02;100.00;100818.34;5073907;28;19932;-80
2022/01/23 09:23:23;;;;;;;;;;;;;;;7.16;100.00;100819.50;5075502;28;19924;-80
2022/01/23 09:25:52;;;;;;;;;;;;;;;7.36;100.00;100818.44;5076223;28;19951;-79
2022/01/23 09:28:20;;;;;;;;;;;;;;;7.24;100.00;100814.94;5058457;28;19929;-80
2022/01/23 09:30:51;;;;;;;;;;;;;;;7.38;100.00;100820.84;5061682;28;20021;-80
2022/01/23 09:33:20;;;;;;;;;;;;;;;7.48;100.00;100813.94;5070271;28;20371;-78
2022/01/23 09:35:47;;;;;;;;;;;;;;;7.55;100.00;100809.34;5052955;28;19928;-82
2022/01/23 09:38:14;;;;;;;;;;;;;;;7.47;100.00;100809.56;5072097;28;20582;-79
2022/01/23 09:40:42;;;;;;;;;;;;;;;7.38;100.00;100816.09;5072154;28;19925;-80
2022/01/23 09:43:15;;;;;;;;;;;;;;;7.54;100.00;100804.16;5072615;28;19931;-80
2022/01/23 09:45:45;;;;;;;;;;;;;;;7.45;100.00;100818.25;5073554;28;19924;-79
2022/01/23 09:48:12;;;;;;;;;;;;;;;7.11;100.00;100808.69;5072438;28;19933;-79
2022/01/23 09:50:41;;;;;;;;;;;;;;;6.90;100.00;100798.97;5070825;28;20019;-79
2022/01/23 09:53:08;;;;;;;;;;;;;;;7.02;100.00;100812.78;5072731;28;20394;-79
2022/01/23 09:55:35;;;;;;;;;;;;;;;7.26;100.00;100821.78;5072104;28;19936;-79
2022/01/23 09:58:02;;;;;;;;;;;;;;;7.43;100.00;100828.13;5054177;28;19928;-79
2022/01/23 10:02:39;;;;;;;;;;;;;;;7.26;100.00;100820.97;5104408;27;19912;-80
2022/01/23 10:05:07;;;;;;;;;;;;;;;7.32;100.00;100813.94;5107772;28;19924;-80
2022/01/23 10:07:38;;;;;;;;;;;;;;;7.21;100.00;100815.66;5087559;28;19925;-80
2022/01/23 10:10:11;;;;;;;;;;;;;;;7.14;100.00;100818.25;5086469;28;19924;-80
2022/01/23 10:12:39;;;;;;;;;;;;;;;6.96;100.00;100814.22;5084079;28;20336;-80
2022/01/23 10:15:06;;;;;;;;;;;;;;;6.76;100.00;100820.81;5084822;28;19924;-79
2022/01/23 10:17:34;;;;;;;;;;;;;;;6.96;100.00;100817.81;5085295;28;20332;-80
2022/01/23 10:20:06;;;;;;;;;;;;;;;7.07;100.00;100823.66;5069470;28;19928;-80
2022/01/23 10:22:35;;;;;;;;;;;;;;;7.19;100.00;100831.91;5088380;28;19977;-80
2022/01/23 10:25:08;;;;;;;;;;;;;;;7.32;100.00;100831.47;5087828;28;19924;-80
2022/01/23 10:27:56;;;;;;;;;;;;;;;7.27;100.00;100828.94;5069598;28;19931;-80
2022/01/23 10:30:24;;;;;;;;;;;;;;;7.12;100.00;100829.75;5088091;28;19928;-80
2022/01/23 10:32:56;;;;;;;;;;;;;;;6.91;100.00;100833.94;5089116;28;19947;-80
2022/01/23 10:35:23;;;;;;;;;;;;;;;6.80;100.00;100821.75;5088274;28;20009;-80
2022/01/23 10:37:52;;;;;;;;;;;;;;;6.77;100.00;100830.81;5089300;28;20022;-80
2022/01/23 10:40:23;;;;;;;;;;;;;;;6.87;100.00;100819.16;5087852;28;19977;-80
2022/01/23 10:50:50;;;;;;;;;;;;;;;6.98;100.00;100823.81;5089254;28;20342;-80
2022/01/23 10:53:17;;;;;;;;;;;;;;;6.82;100.00;100824.97;5089168;28;19924;-80
2022/01/23 10:55:45;;;;;;;;;;;;;;;6.95;100.00;100818.19;5087540;28;19932;-80
2022/01/23 10:58:20;;;;;;;;;;;;;;;7.12;100.00;100823.38;5087836;28;19924;-80
2022/01/23 11:00:48;;;;;;;;;;;;;;;7.15;100.00;100822.66;5088893;28;20009;-80
2022/01/23 11:03:15;;;;;;;;;;;;;;;6.84;100.00;100828.19;5088768;28;20011;-80
2022/01/23 11:05:42;;;;;;;;;;;;;;;6.73;100.00;100827.09;5087428;28;20380;-80
2022/01/23 11:08:18;;;;;;;;;;;;;;;6.61;100.00;100818.84;5070752;28;19924;-79
2022/01/23 11:11:02;;;;;;;;;;;;;;;6.90;100.00;100818.44;5087452;28;20026;-80
2022/01/23 11:19:18;;;;;;;;;;;;;;;6.88;100.00;100829.09;5073852;28;19950;-80
2022/01/23 11:21:46;;;;;;;;;;;;;;;6.96;100.00;100811.44;5073920;28;19924;-80
2022/01/23 11:24:19;;;;;;;;;;;;;;;6.69;100.00;100801.19;5074205;28;19931;-80
2022/01/23 11:26:46;;;;;;;;;;;;;;;6.47;100.00;100799.00;5057433;28;19924;-80
2022/01/23 11:29:14;;;;;;;;;;;;;;;6.42;100.00;100804.81;5075245;28;19924;-80
2022/01/23 11:31:43;;;;;;;;;;;;;;;6.56;100.00;100805.19;5057608;28;19982;-80
2022/01/23 11:34:12;;;;;;;;;;;;;;;6.69;100.00;100809.53;5075678;28;19924;-81
2022/01/23 11:36:40;;;;;;;;;;;;;;;6.53;100.00;100800.34;5084386;28;19924;-80
2022/01/23 11:39:21;;;;;;;;;;;;;;;6.67;100.00;100795.19;5083825;28;19964;-81
2022/01/23 11:56:25;;;;;;;;;;;;;;;6.30;100.00;100774.34;5055686;28;19924;-80
2022/01/23 11:58:53;;;;;;;;;;;;;;;6.07;100.00;100770.50;5068813;28;19935;-80
2022/01/23 12:01:26;;;;;;;;;;;;;;;6.25;100.00;100771.81;5095032;28;20348;-80
2022/01/23 12:04:09;;;;;;;;;;;;;;;6.15;100.00;100778.66;5095733;28;19925;-80
2022/01/23 12:06:37;;;;;;;;;;;;;;;6.23;100.00;100771.34;5094463;28;19930;-79
2022/01/23 12:09:18;;;;;;;;;;;;;;;6.33;100.00;100774.41;5095520;28;20014;-80
2022/01/23 12:12:04;;;;;;;;;;;;;;;6.13;100.00;100763.53;5094359;28;19924;-79
2022/01/23 12:17:12;;;;;;;;;;;;;;;6.15;100.00;100766.78;5094514;28;19934;-80
2022/01/23 12:19:44;;;;;;;;;;;;;;;5.92;100.00;100754.59;5095558;28;19946;-79
2022/01/23 12:22:24;;;;;;;;;;;;;;;6.10;100.00;100759.50;5093881;28;20404;-79
2022/01/23 12:24:52;;;;;;;;;;;;;;;6.14;100.00;100765.94;5094257;28;20530;-80
2022/01/23 12:27:23;;;;;;;;;;;;;;;6.15;100.00;100766.78;5095088;28;20268;-79
2022/01/23 12:29:51;;;;;;;;;;;;;;;5.89;100.00;100758.06;5095494;28;19993;-79
2022/01/23 12:32:18;;;;;;;;;;;;;;;5.91;100.00;100751.00;5095250;28;19932;-79
2022/01/23 12:34:49;;;;;;;;;;;;;;;5.82;100.00;100743.97;5093971;28;19998;-79
2022/01/23 12:37:17;;;;;;;;;;;;;;;5.53;100.00;100751.41;5093821;28;19924;-80
2022/01/23 12:39:46;;;;;;;;;;;;;;;5.59;100.00;100750.03;5093598;28;20016;-80
2022/01/23 12:42:15;;;;;;;;;;;;;;;5.84;100.00;100741.66;5060658;28;20074;-80
2022/01/23 12:44:43;;;;;;;;;;;;;;;5.80;100.00;100740.72;5093764;28;19930;-80
2022/01/23 12:47:18;;;;;;;;;;;;;;;5.93;100.00;100739.56;5095332;28;19924;-79
2022/01/23 12:49:51;;;;;;;;;;;;;;;6.20;100.00;100739.56;5094591;28;19924;-80
2022/01/23 12:52:20;;;;;;;;;;;;;;;6.24;100.00;100742.44;5094514;28;19924;-80
2022/01/23 12:54:48;;;;;;;;;;;;;;;6.33;100.00;100726.44;5093675;28;19924;-80
2022/01/23 12:57:15;;;;;;;;;;;;;;;6.36;100.00;100728.50;5094606;28;19927;-80
2022/01/23 12:59:49;;;;;;;;;;;;;;;6.28;100.00;100732.22;5075784;28;19929;-80
2022/01/23 13:02:19;;;;;;;;;;;;;;;6.20;100.00;100730.41;5074010;28;19924;-80
2022/01/23 13:04:47;;;;;;;;;;;;;;;6.46;100.00;100717.66;5056591;28;20019;-80
2022/01/23 13:07:26;;;;;;;;;;;;;;;6.41;100.00;100714.31;5075438;28;20437;-80
2022/01/23 13:10:03;;;;;;;;;;;;;;;6.44;100.00;100724.72;5093266;28;19924;-80
2022/01/23 13:12:47;;;;;;;;;;;;;;;6.26;100.00;100706.78;5090766;28;19962;-80
2022/01/23 13:15:25;;;;;;;;;;;;;;;5.90;100.00;100715.28;5074081;28;19924;-80
2022/01/23 13:31:39;;;;;;;;;;;;;;;5.38;100.00;100724.41;5072551;28;20824;-80
2022/01/23 13:34:19;;;;;;;;;;;;;;;5.44;100.00;100714.69;5072407;28;20566;-80
2022/01/23 13:37:13;;;;;;;;;;;;;;;5.77;100.00;100720.03;5073414;28;19931;-80
2022/01/23 13:39:47;;;;;;;;;;;;;;;5.92;100.00;100724.06;5091141;28;20290;-80
2022/01/23 13:53:33;;;;;;;;;;;;;;;5.48;100.00;100721.16;5094099;28;19924;-79
2022/01/23 13:58:53;;;;;;;;;;;;;;;5.62;100.00;100719.97;5094018;28;19947;-80
2022/01/23 14:03:54;;;;;;;;;;;;;;;5.77;100.00;100722.00;5093845;28;19962;-80
2022/01/23 14:06:22;;;;;;;;;;;;;;;5.88;100.00;100720.41;5093921;28;20260;-80
2022/01/23 14:08:59;;;;;;;;;;;;;;;5.94;100.00;100705.91;5093658;28;19977;-80
2022/01/23 14:11:27;;;;;;;;;;;;;;;5.89;100.00;100697.03;5093803;28;20394;-80
2022/01/23 14:13:54;;;;;;;;;;;;;;;5.47;100.00;100702.91;5092983;28;20404;-80
2022/01/23 14:16:26;;;;;;;;;;;;;;;5.63;100.00;100694.69;5092989;28;19924;-80
2022/01/23 14:19:11;;;;;;;;;;;;;;;5.24;100.00;100693.47;5093798;28;19956;-80
2022/01/23 14:21:41;;;;;;;;;;;;;;;5.52;100.00;100707.41;5077225;28;19932;-80
2022/01/23 14:24:09;;;;;;;;;;;;;;;5.75;100.00;100699.38;5075411;28;19924;-78
2022/01/23 14:26:36;;;;;;;;;;;;;;;5.83;100.00;100690.13;5086146;28;19924;-78
2022/01/23 14:29:08;;;;;;;;;;;;;;;5.40;100.00;100691.63;5077907;28;19975;-80
2022/01/23 14:31:37;;;;;;;;;;;;;;;5.64;100.00;100685.19;5081684;28;19940;-80
2022/01/23 14:34:23;;;;;;;;;;;;;;;5.75;100.00;100688.25;5079867;28;20039;-80
2022/01/23 14:36:58;;;;;;;;;;;;;;;5.43;100.00;100685.38;5080995;28;19924;-80
2022/01/23 14:39:25;;;;;;;;;;;;;;;5.36;100.00;100679.59;5083170;28;19952;-79
2022/01/23 14:41:55;;;;;;;;;;;;;;;5.27;100.00;100681.69;5072771;28;19952;-79
2022/01/23 14:44:23;;;;;;;;;;;;;;;5.14;100.00;100680.13;5071628;28;20019;-79
2022/01/23 14:46:52;;;;;;;;;;;;;;;5.13;100.00;100674.94;5072655;28;20415;-80
2022/01/23 14:49:25;;;;;;;;;;;;;;;5.15;100.00;100667.06;5076401;28;19925;-80
2022/01/23 14:51:55;;;;;;;;;;;;;;;5.03;100.00;100665.13;5079756;28;19975;-79
2022/01/23 14:54:24;;;;;;;;;;;;;;;5.36;100.00;100676.81;5082124;28;20022;-80
2022/01/23 14:56:51;;;;;;;;;;;;;;;5.47;100.00;100664.09;5075527;28;19985;-80
2022/01/23 15:02:24;;;;;;;;;;;;;;;5.65;100.00;100658.28;5080643;28;19960;-79
2022/01/23 15:04:51;;;;;;;;;;;;;;;5.66;100.00;100660.69;5094110;28;19931;-79
2022/01/23 15:07:19;;;;;;;;;;;;;;;5.59;100.00;100652.97;5075000;28;19928;-79
2022/01/23 15:09:47;;;;;;;;;;;;;;;5.66;100.00;100655.16;5076330;28;20011;-79
2022/01/23 15:12:14;;;;;;;;;;;;;;;5.69;100.00;100648.06;5084700;28;19970;-79
2022/01/23 15:14:42;;;;;;;;;;;;;;;5.43;100.00;100645.75;5087619;28;19932;-80
2022/01/23 15:17:09;;;;;;;;;;;;;;;5.34;100.00;100645.09;5086297;28;19970;-80
2022/01/23 15:19:36;;;;;;;;;;;;;;;5.30;100.00;100644.97;5086456;28;19932;-79
2022/01/23 15:22:03;;;;;;;;;;;;;;;5.13;100.00;100647.22;5084548;28;19928;-80
2022/01/23 15:24:31;;;;;;;;;;;;;;;5.28;100.00;100647.31;5084120;28;20371;-81
2022/01/23 15:26:58;;;;;;;;;;;;;;;5.21;100.00;100638.75;5084668;28;20355;-80
2022/01/23 15:29:26;;;;;;;;;;;;;;;5.15;100.00;100645.69;5089330;28;19924;-80
2022/01/23 15:31:53;;;;;;;;;;;;;;;5.12;100.00;100627.00;5085782;28;20028;-79
2022/01/23 15:34:20;;;;;;;;;;;;;;;5.37;100.00;100647.97;5080510;28;19925;-79
2022/01/23 15:36:50;;;;;;;;;;;;;;;5.27;100.00;100650.44;5081179;28;19931;-79
2022/01/23 15:39:17;;;;;;;;;;;;;;;5.31;100.00;100643.84;5084211;28;19931;-78
2022/01/23 15:41:45;;;;;;;;;;;;;;;5.07;100.00;100646.63;5087613;28;19931;-77
2022/01/23 15:44:12;;;;;;;;;;;;;;;5.37;100.00;100647.97;5081351;28;19924;-77
2022/01/23 15:46:39;;;;;;;;;;;;;;;5.59;100.00;100636.31;5077708;28;19932;-78
2022/01/23 15:49:07;;;;;;;;;;;;;;;5.44;100.00;100642.63;5085004;28;20014;-78
2022/01/23 15:51:35;;;;;;;;;;;;;;;5.59;100.00;100628.00;5084713;28;19935;-77
2022/01/23 15:54:03;;;;;;;;;;;;;;;5.59;100.00;100638.28;5085835;28;19969;-78
2022/01/23 15:56:30;;;;;;;;;;;;;;;5.57;100.00;100630.31;5083117;28;19924;-78
2022/01/23 15:58:57;;;;;;;;;;;;;;;5.52;100.00;100627.00;5081597;28;19931;-77
2022/01/23 16:01:24;;;;;;;;;;;;;;;5.47;100.00;100630.00;5084771;28;19928;-77
2022/01/23 16:03:51;;;;;;;;;;;;;;;4.99;100.00;100635.69;5086240;28;20031;-77
2022/01/23 16:06:20;;;;;;;;;;;;;;;4.98;100.00;100634.88;5085927;28;19925;-77
2022/01/23 16:08:50;;;;;;;;;;;;;;;5.31;100.00;100627.19;5077165;28;19956;-78
2022/01/23 16:11:18;;;;;;;;;;;;;;;5.47;100.00;100630.81;5091744;28;19962;-79
2022/01/23 16:13:45;;;;;;;;;;;;;;;5.20;100.00;100636.34;5079407;28;19925;-79
2022/01/23 16:16:13;;;;;;;;;;;;;;;5.33;100.00;100629.63;5074988;28;20023;-79
2022/01/23 16:18:41;;;;;;;;;;;;;;;5.23;100.00;100622.59;5075062;28;19931;-79
2022/01/23 16:21:09;;;;;;;;;;;;;;;5.26;100.00;100630.19;5075077;28;20390;-79
2022/01/23 16:23:36;;;;;;;;;;;;;;;4.99;100.00;100635.69;5075093;28;19925;-79
2022/01/23 16:26:09;;;;;;;;;;;;;;;4.76;100.00;100640.09;5072745;28;20015;-79
2022/01/23 16:28:36;;;;;;;;;;;;;;;4.97;100.00;100635.22;5082664;28;19950;-79
2022/01/23 16:31:03;;;;;;;;;;;;;;;5.02;100.00;100632.22;5086478;28;19935;-78